sensor_id;sensor_type;location;lat;lon;timestamp;pressure;altitude;pressure_sealevel;temperature;humidity
70982;BME280;58640;51.320;9.456;2023-04-01T00:00:03;97357.50;;;8.98;100.00
70982;BME280;58640;51.320;9.456;2023-04-01T00:02:29;97356.00;;;9.08;100.00
70982;BME280;58640;51.320;9.456;2023-04-01T00:04:55;97355.78;;;8.78;100.00
70982;BME280;58640;51.320;9.456;2023-04-01T00:07:20;97361.72;;;8.87;100.00
70982;BME280;58640;51.320;9.456;2023-04-01T00:09:46;97359.75;;;9.01;100.00
70982;BME280;58640;51.320;9.456;2023-04-01T00:12:11;97355.44;;;9.00;100.00
70982;BME280;58640;51.320;9.456;2023-04-01T00:14:36;97359.19;;;8.92;100.00
70982;BME280;58640;51.320;9.456;2023-04-01T00:17:02;97351.09;;;8.99;100.00
70982;BME280;58640;51.320;9.456;2023-04-01T00:19:28;97363.31;;;8.95;100.00
70982;BME280;58640;51.320;9.456;2023-04-01T00:21:53;97372.94;;;9.02;100.00
70982;BME280;58640;51.320;9.456;2023-04-01T00:24:18;97365.81;;;8.89;100.00
70982;BME280;58640;51.320;9.456;2023-04-01T00:26:44;97353.31;;;9.08;100.00
70982;BME280;58640;51.320;9.456;2023-04-01T00:29:09;97363.84;;;9.03;100.00
70982;BME280;58640;51.320;9.456;2023-04-01T00:31:35;97360.63;;;8.95;100.00
70982;BME280;58640;51.320;9.456;2023-04-01T00:34:00;97355.91;;;8.90;100.00
70982;BME280;58640;51.320;9.456;2023-04-01T00:36:26;97355.56;;;8.80;100.00
70982;BME280;58640;51.320;9.456;2023-04-01T00:38:51;97355.53;;;8.86;100.00
70982;BME280;58640;51.320;9.456;2023-04-01T00:41:18;97351.50;;;9.02;100.00
70982;BME280;58640;51.320;9.456;2023-04-01T00:43:47;97351.31;;;8.97;100.00
70982;BME280;58640;51.320;9.456;2023-04-01T00:46:13;97354.31;;;8.76;100.00
70982;BME280;58640;51.320;9.456;2023-04-01T00:48:42;97358.09;;;8.68;100.00
70982;BME280;58640;51.320;9.456;2023-04-01T00:51:14;97354.16;;;8.77;100.00
70982;BME280;58640;51.320;9.456;2023-04-01T00:53:45;97352.50;;;8.70;100.00
70982;BME280;58640;51.320;9.456;2023-04-01T00:56:15;97351.47;;;8.77;100.00
70982;BME280;58640;51.320;9.456;2023-04-01T00:58:44;97352.94;;;8.67;100.00
70982;BME280;58640;51.320;9.456;2023-04-01T01:01:11;97347.97;;;8.70;100.00
70982;BME280;58640;51.320;9.456;2023-04-01T01:03:37;97354.63;;;8.61;100.00
70982;BME280;58640;51.320;9.456;2023-04-01T01:06:10;97361.97;;;8.79;100.00
70982;BME280;58640;51.320;9.456;2023-04-01T01:08:52;97354.28;;;8.82;100.00
70982;BME280;58640;51.320;9.456;2023-04-01T01:11:28;97353.50;;;8.82;100.00
70982;BME280;58640;51.320;9.456;2023-04-01T01:16:48;97355.41;;;8.68;100.00
70982;BME280;58640;51.320;9.456;2023-04-01T01:19:26;97365.19;;;8.87;100.00
70982;BME280;58640;51.320;9.456;2023-04-01T01:24:42;97352.44;;;8.83;100.00
70982;BME280;58640;51.320;9.456;2023-04-01T01:27:16;97347.91;;;8.83;100.00
70982;BME280;58640;51.320;9.456;2023-04-01T01:29:52;97354.84;;;8.98;100.00
70982;BME280;58640;51.320;9.456;2023-04-01T01:32:41;97352.63;;;8.88;100.00
70982;BME280;58640;51.320;9.456;2023-04-01T01:35:25;97351.19;;;8.85;100.00
70982;BME280;58640;51.320;9.456;2023-04-01T01:37:55;97341.47;;;8.91;100.00
70982;BME280;58640;51.320;9.456;2023-04-01T01:40:24;97345.22;;;8.83;100.00
70982;BME280;58640;51.320;9.456;2023-04-01T01:42:54;97340.28;;;8.87;100.00
70982;BME280;58640;51.320;9.456;2023-04-01T01:45:23;97339.00;;;8.89;100.00
70982;BME280;58640;51.320;9.456;2023-04-01T01:47:50;97341.75;;;8.76;100.00
70982;BME280;58640;51.320;9.456;2023-04-01T01:50:18;97335.41;;;8.71;100.00
70982;BME280;58640;51.320;9.456;2023-04-01T01:52:44;97344.22;;;8.78;100.00
70982;BME280;58640;51.320;9.456;2023-04-01T01:55:45;97342.16;;;8.80;100.00
70982;BME280;58640;51.320;9.456;2023-04-01T02:01:13;97337.88;;;8.72;100.00
70982;BME280;58640;51.320;9.456;2023-04-01T02:03:42;97343.22;;;8.79;100.00
70982;BME280;58640;51.320;9.456;2023-04-01T02:06:11;97335.72;;;8.87;100.00
70982;BME280;58640;51.320;9.456;2023-04-01T02:08:47;97345.53;;;9.00;100.00
70982;BME280;58640;51.320;9.456;2023-04-01T02:11:18;97340.53;;;8.79;100.00
70982;BME280;58640;51.320;9.456;2023-04-01T02:13:54;97338.88;;;8.78;100.00
70982;BME280;58640;51.320;9.456;2023-04-01T02:16:32;97339.50;;;8.73;100.00
70982;BME280;58640;51.320;9.456;2023-04-01T02:19:00;97335.66;;;8.94;100.00
70982;BME280;58640;51.320;9.456;2023-04-01T02:21:30;97336.84;;;8.73;100.00
70982;BME280;58640;51.320;9.456;2023-04-01T02:23:58;97335.84;;;8.99;100.00
70982;BME280;58640;51.320;9.456;2023-04-01T02:26:26;97338.47;;;8.74;100.00
70982;BME280;58640;51.320;9.456;2023-04-01T02:28:52;97336.22;;;8.71;100.00
70982;BME280;58640;51.320;9.456;2023-04-01T02:31:19;97329.81;;;9.04;100.00
70982;BME280;58640;51.320;9.456;2023-04-01T02:33:45;97342.72;;;8.88;100.00
70982;BME280;58640;51.320;9.456;2023-04-01T02:36:15;97340.28;;;8.87;100.00
70982;BME280;58640;51.320;9.456;2023-04-01T02:38:42;97350.19;;;8.80;100.00
70982;BME280;58640;51.320;9.456;2023-04-01T02:41:08;97341.31;;;8.79;100.00
70982;BME280;58640;51.320;9.456;2023-04-01T02:43:33;97345.50;;;8.75;100.00
70982;BME280;58640;51.320;9.456;2023-04-01T02:45:59;97346.69;;;8.79;100.00
70982;BME280;58640;51.320;9.456;2023-04-01T02:48:24;97349.53;;;8.84;100.00
70982;BME280;58640;51.320;9.456;2023-04-01T02:50:50;97345.81;;;8.85;100.00
70982;BME280;58640;51.320;9.456;2023-04-01T02:53:15;97352.28;;;8.71;100.00
70982;BME280;58640;51.320;9.456;2023-04-01T02:55:41;97350.53;;;8.97;100.00
70982;BME280;58640;51.320;9.456;2023-04-01T02:58:07;97355.97;;;8.83;100.00
70982;BME280;58640;51.320;9.456;2023-04-01T03:00:32;97356.38;;;8.80;100.00
70982;BME280;58640;51.320;9.456;2023-04-01T03:02:57;97354.25;;;8.89;100.00
70982;BME280;58640;51.320;9.456;2023-04-01T03:05:23;97351.66;;;8.76;100.00
70982;BME280;58640;51.320;9.456;2023-04-01T03:07:48;97348.50;;;8.85;100.00
70982;BME280;58640;51.320;9.456;2023-04-01T03:10:14;97352.00;;;8.86;100.00
70982;BME280;58640;51.320;9.456;2023-04-01T03:12:39;97352.63;;;8.88;100.00
70982;BME280;58640;51.320;9.456;2023-04-01T03:15:05;97349.75;;;8.83;100.00
70982;BME280;58640;51.320;9.456;2023-04-01T03:17:31;97351.88;;;8.74;100.00
70982;BME280;58640;51.320;9.456;2023-04-01T03:19:56;97351.06;;;8.74;100.00
70982;BME280;58640;51.320;9.456;2023-04-01T03:22:21;97354.97;;;8.71;100.00
70982;BME280;58640;51.320;9.456;2023-04-01T03:24:48;97353.31;;;8.77;100.00
70982;BME280;58640;51.320;9.456;2023-04-01T03:27:13;97349.66;;;8.65;100.00
70982;BME280;58640;51.320;9.456;2023-04-01T03:29:38;97352.94;;;8.67;100.00
70982;BME280;58640;51.320;9.456;2023-04-01T03:32:04;97350.84;;;8.75;100.00
70982;BME280;58640;51.320;9.456;2023-04-01T03:34:30;97353.75;;;8.74;100.00
70982;BME280;58640;51.320;9.456;2023-04-01T03:36:56;97358.88;;;8.75;100.00
70982;BME280;58640;51.320;9.456;2023-04-01T03:39:21;97355.59;;;8.73;100.00
70982;BME280;58640;51.320;9.456;2023-04-01T03:41:47;97359.31;;;8.72;100.00
70982;BME280;58640;51.320;9.456;2023-04-01T03:44:13;97361.19;;;8.65;100.00
70982;BME280;58640;51.320;9.456;2023-04-01T03:46:38;97352.13;;;8.66;100.00
70982;BME280;58640;51.320;9.456;2023-04-01T03:49:11;97351.97;;;8.61;100.00
70982;BME280;58640;51.320;9.456;2023-04-01T03:51:41;97354.41;;;8.69;100.00
70982;BME280;58640;51.320;9.456;2023-04-01T03:54:08;97350.00;;;8.75;99.57
70982;BME280;58640;51.320;9.456;2023-04-01T03:56:34;97358.03;;;8.81;99.18
70982;BME280;58640;51.320;9.456;2023-04-01T03:59:03;97349.84;;;8.70;100.00
70982;BME280;58640;51.320;9.456;2023-04-01T04:01:28;97351.31;;;8.66;100.00
70982;BME280;58640;51.320;9.456;2023-04-01T04:03:54;97347.84;;;8.59;100.00
70982;BME280;58640;51.320;9.456;2023-04-01T04:06:20;97347.78;;;8.72;99.46
70982;BME280;58640;51.320;9.456;2023-04-01T04:08:46;97343.72;;;8.63;100.00
70982;BME280;58640;51.320;9.456;2023-04-01T04:11:11;97358.13;;;8.62;100.00
70982;BME280;58640;51.320;9.456;2023-04-01T04:13:37;97349.88;;;8.63;100.00
70982;BME280;58640;51.320;9.456;2023-04-01T04:16:03;97354.84;;;8.60;100.00
70982;BME280;58640;51.320;9.456;2023-04-01T04:18:29;97353.84;;;8.54;100.00
70982;BME280;58640;51.320;9.456;2023-04-01T04:20:54;97360.00;;;8.61;100.00
70982;BME280;58640;51.320;9.456;2023-04-01T04:23:20;97362.84;;;8.66;99.96
70982;BME280;58640;51.320;9.456;2023-04-01T04:25:54;97359.53;;;8.71;99.87
70982;BME280;58640;51.320;9.456;2023-04-01T04:28:19;97358.94;;;8.62;100.00
70982;BME280;58640;51.320;9.456;2023-04-01T04:30:45;97353.56;;;8.69;99.98
70982;BME280;58640;51.320;9.456;2023-04-01T04:33:10;97371.53;;;8.62;100.00
70982;BME280;58640;51.320;9.456;2023-04-01T04:35:36;97364.31;;;8.62;100.00
70982;BME280;58640;51.320;9.456;2023-04-01T04:38:01;97364.56;;;8.54;100.00
70982;BME280;58640;51.320;9.456;2023-04-01T04:40:26;97367.03;;;8.56;100.00
70982;BME280;58640;51.320;9.456;2023-04-01T04:42:52;97366.44;;;8.47;100.00
70982;BME280;58640;51.320;9.456;2023-04-01T04:45:17;97364.19;;;8.44;100.00
70982;BME280;58640;51.320;9.456;2023-04-01T04:47:42;97367.31;;;8.28;100.00
70982;BME280;58640;51.320;9.456;2023-04-01T04:50:08;97365.16;;;8.63;100.00
70982;BME280;58640;51.320;9.456;2023-04-01T04:52:33;97363.34;;;8.50;100.00
70982;BME280;58640;51.320;9.456;2023-04-01T04:54:59;97364.00;;;8.39;100.00
70982;BME280;58640;51.320;9.456;2023-04-01T04:57:24;97371.56;;;8.49;100.00
70982;BME280;58640;51.320;9.456;2023-04-01T04:59:50;97365.41;;;8.48;100.00
70982;BME280;58640;51.320;9.456;2023-04-01T05:02:15;97370.06;;;8.66;100.00
70982;BME280;58640;51.320;9.456;2023-04-01T05:04:41;97369.09;;;8.54;100.00
70982;BME280;58640;51.320;9.456;2023-04-01T05:07:06;97371.19;;;8.52;100.00
70982;BME280;58640;51.320;9.456;2023-04-01T05:09:31;97371.00;;;8.47;100.00
70982;BME280;58640;51.320;9.456;2023-04-01T05:11:57;97370.34;;;8.51;100.00
70982;BME280;58640;51.320;9.456;2023-04-01T05:14:22;97367.47;;;8.46;100.00
70982;BME280;58640;51.320;9.456;2023-04-01T05:16:47;97370.56;;;8.50;100.00
70982;BME280;58640;51.320;9.456;2023-04-01T05:19:14;97364.41;;;8.36;100.00
70982;BME280;58640;51.320;9.456;2023-04-01T05:21:39;97377.00;;;8.36;100.00
70982;BME280;58640;51.320;9.456;2023-04-01T05:24:08;97373.63;;;8.60;100.00
70982;BME280;58640;51.320;9.456;2023-04-01T05:26:34;97369.88;;;8.61;99.62
70982;BME280;58640;51.320;9.456;2023-04-01T05:29:00;97369.69;;;8.56;99.59
70982;BME280;58640;51.320;9.456;2023-04-01T05:31:25;97366.03;;;8.50;100.00
70982;BME280;58640;51.320;9.456;2023-04-01T05:33:51;97369.06;;;8.60;99.44
70982;BME280;58640;51.320;9.456;2023-04-01T05:36:16;97371.78;;;8.47;100.00
70982;BME280;58640;51.320;9.456;2023-04-01T05:38:42;97375.28;;;8.48;100.00
70982;BME280;58640;51.320;9.456;2023-04-01T05:41:08;97373.84;;;8.52;100.00
70982;BME280;58640;51.320;9.456;2023-04-01T05:43:36;97362.97;;;8.40;100.00
70982;BME280;58640;51.320;9.456;2023-04-01T05:46:01;97380.59;;;8.61;100.00
70982;BME280;58640;51.320;9.456;2023-04-01T05:48:26;97382.38;;;8.80;99.73
70982;BME280;58640;51.320;9.456;2023-04-01T05:50:52;97373.97;;;8.70;99.85
70982;BME280;58640;51.320;9.456;2023-04-01T05:53:17;97387.47;;;8.50;100.00
70982;BME280;58640;51.320;9.456;2023-04-01T05:55:43;97384.59;;;8.45;100.00
70982;BME280;58640;51.320;9.456;2023-04-01T05:58:08;97380.41;;;8.56;100.00
70982;BME280;58640;51.320;9.456;2023-04-01T06:00:33;97381.59;;;8.66;100.00
70982;BME280;58640;51.320;9.456;2023-04-01T06:02:59;97391.81;;;8.45;100.00
70982;BME280;58640;51.320;9.456;2023-04-01T06:05:28;97385.59;;;8.51;100.00
70982;BME280;58640;51.320;9.456;2023-04-01T06:07:58;97394.28;;;8.40;100.00
70982;BME280;58640;51.320;9.456;2023-04-01T06:13:17;97394.94;;;8.29;100.00
70982;BME280;58640;51.320;9.456;2023-04-01T06:16:16;97389.78;;;8.34;100.00
70982;BME280;58640;51.320;9.456;2023-04-01T06:24:28;97399.38;;;8.61;100.00
70982;BME280;58640;51.320;9.456;2023-04-01T06:33:09;97400.06;;;8.43;100.00
70982;BME280;58640;51.320;9.456;2023-04-01T06:39:41;97400.34;;;8.66;100.00
70982;BME280;58640;51.320;9.456;2023-04-01T06:44:50;97394.38;;;8.71;100.00
70982;BME280;58640;51.320;9.456;2023-04-01T06:53:14;97400.78;;;8.63;100.00
70982;BME280;58640;51.320;9.456;2023-04-01T06:55:46;97407.78;;;8.71;100.00
70982;BME280;58640;51.320;9.456;2023-04-01T06:58:21;97405.09;;;8.71;100.00
70982;BME280;58640;51.320;9.456;2023-04-01T07:00:50;97401.69;;;8.95;100.00
70982;BME280;58640;51.320;9.456;2023-04-01T07:08:59;97403.91;;;9.05;98.64
70982;BME280;58640;51.320;9.456;2023-04-01T07:11:34;97405.97;;;9.03;99.98
70982;BME280;58640;51.320;9.456;2023-04-01T07:14:17;97404.69;;;9.05;98.70
70982;BME280;58640;51.320;9.456;2023-04-01T07:16:53;97406.34;;;9.06;99.42
70982;BME280;58640;51.320;9.456;2023-04-01T07:19:29;97398.59;;;8.92;100.00
70982;BME280;58640;51.320;9.456;2023-04-01T07:21:59;97409.09;;;8.93;99.98
70982;BME280;58640;51.320;9.456;2023-04-01T07:24:27;97415.78;;;9.15;99.48
70982;BME280;58640;51.320;9.456;2023-04-01T07:26:57;97415.31;;;9.25;98.22
70982;BME280;58640;51.320;9.456;2023-04-01T07:29:23;97419.59;;;9.01;100.00
70982;BME280;58640;51.320;9.456;2023-04-01T07:34:49;97426.53;;;9.09;99.16
70982;BME280;58640;51.320;9.456;2023-04-01T07:37:34;97426.50;;;9.15;100.00
70982;BME280;58640;51.320;9.456;2023-04-01T07:51:31;97441.69;;;9.28;99.06
70982;BME280;58640;51.320;9.456;2023-04-01T07:56:32;97442.31;;;9.30;98.71
70982;BME280;58640;51.320;9.456;2023-04-01T08:04:25;97449.84;;;9.46;98.26
70982;BME280;58640;51.320;9.456;2023-04-01T08:15:31;97456.63;;;9.79;96.30
70982;BME280;58640;51.320;9.456;2023-04-01T08:18:15;97459.03;;;9.87;95.79
70982;BME280;58640;51.320;9.456;2023-04-01T08:20:56;97462.34;;;9.83;96.39
70982;BME280;58640;51.320;9.456;2023-04-01T08:23:27;97467.94;;;10.06;95.22
70982;BME280;58640;51.320;9.456;2023-04-01T08:26:06;97464.50;;;10.23;93.68
70982;BME280;58640;51.320;9.456;2023-04-01T08:28:39;97472.47;;;10.12;93.55
70982;BME280;58640;51.320;9.456;2023-04-01T08:33:37;97470.50;;;10.25;92.55
70982;BME280;58640;51.320;9.456;2023-04-01T08:36:22;97476.84;;;10.31;93.04
70982;BME280;58640;51.320;9.456;2023-04-01T08:38:57;97473.47;;;10.17;92.86
70982;BME280;58640;51.320;9.456;2023-04-01T08:49:38;97480.34;;;9.82;94.96
70982;BME280;58640;51.320;9.456;2023-04-01T09:00:47;97485.94;;;10.30;91.26
70982;BME280;58640;51.320;9.456;2023-04-01T09:03:36;97475.94;;;10.19;92.82
70982;BME280;58640;51.320;9.456;2023-04-01T09:06:25;97470.22;;;10.33;90.88
70982;BME280;58640;51.320;9.456;2023-04-01T09:09:21;97478.34;;;10.27;92.75
70982;BME280;58640;51.320;9.456;2023-04-01T09:12:28;97483.25;;;10.30;91.91
70982;BME280;58640;51.320;9.456;2023-04-01T09:18:40;97485.94;;;10.30;89.89
70982;BME280;58640;51.320;9.456;2023-04-01T09:24:25;97487.63;;;10.24;92.21
70982;BME280;58640;51.320;9.456;2023-04-01T09:27:02;97489.47;;;10.49;90.48
70982;BME280;58640;51.320;9.456;2023-04-01T09:35:10;97489.50;;;10.67;88.96
70982;BME280;58640;51.320;9.456;2023-04-01T09:40:21;97499.31;;;10.37;90.83
70982;BME280;58640;51.320;9.456;2023-04-01T10:03:23;97504.41;;;10.63;92.35
70982;BME280;58640;51.320;9.456;2023-04-01T10:06:09;97515.03;;;10.58;92.22
70982;BME280;58640;51.320;9.456;2023-04-01T10:22:31;97523.75;;;11.43;89.19
70982;BME280;58640;51.320;9.456;2023-04-01T10:31:25;97517.44;;;11.02;90.92
70982;BME280;58640;51.320;9.456;2023-04-01T10:36:47;97521.00;;;11.32;91.04
70982;BME280;58640;51.320;9.456;2023-04-01T10:48:09;97519.69;;;11.05;90.91
70982;BME280;58640;51.320;9.456;2023-04-01T10:53:42;97517.44;;;10.84;93.92
70982;BME280;58640;51.320;9.456;2023-04-01T10:56:39;97523.28;;;11.17;90.86
70982;BME280;58640;51.320;9.456;2023-04-01T11:18:56;97527.00;;;12.05;88.31
70982;BME280;58640;51.320;9.456;2023-04-01T11:21:57;97522.56;;;11.87;88.41
70982;BME280;58640;51.320;9.456;2023-04-01T11:36:03;97524.22;;;11.40;88.81
70982;BME280;58640;51.320;9.456;2023-04-01T11:41:41;97525.44;;;11.26;90.63
70982;BME280;58640;51.320;9.456;2023-04-01T11:44:18;97540.59;;;11.21;91.75
70982;BME280;58640;51.320;9.456;2023-04-01T11:52:53;97541.56;;;10.90;94.75
70982;BME280;58640;51.320;9.456;2023-04-01T12:01:38;97551.00;;;10.99;95.47
70982;BME280;58640;51.320;9.456;2023-04-01T12:04:42;97555.91;;;10.84;97.27
70982;BME280;58640;51.320;9.456;2023-04-01T12:07:41;97554.03;;;11.03;96.85
70982;BME280;58640;51.320;9.456;2023-04-01T12:10:45;97563.53;;;11.41;94.99
70982;BME280;58640;51.320;9.456;2023-04-01T12:13:35;97567.72;;;11.19;95.87
70982;BME280;58640;51.320;9.456;2023-04-01T12:16:29;97572.75;;;11.34;95.01
70982;BME280;58640;51.320;9.456;2023-04-01T12:19:17;97569.59;;;11.19;95.93
70982;BME280;58640;51.320;9.456;2023-04-01T12:24:33;97573.56;;;11.34;95.58
70982;BME280;58640;51.320;9.456;2023-04-01T12:27:43;97579.00;;;11.46;95.32
70982;BME280;58640;51.320;9.456;2023-04-01T12:30:02;97581.66;;;11.34;96.82
70982;BME280;58640;51.320;9.456;2023-04-01T12:38:03;97586.19;;;11.34;95.43
70982;BME280;58640;51.320;9.456;2023-04-01T12:46:25;97587.50;;;11.61;95.30
70982;BME280;58640;51.320;9.456;2023-04-01T12:49:31;97586.44;;;11.32;96.08
70982;BME280;58640;51.320;9.456;2023-04-01T13:01:03;97601.47;;;10.79;99.45
70982;BME280;58640;51.320;9.456;2023-04-01T13:14:30;97614.03;;;11.64;95.73
70982;BME280;58640;51.320;9.456;2023-04-01T13:18:06;97609.72;;;11.74;94.69
70982;BME280;58640;51.320;9.456;2023-04-01T13:20:14;97617.81;;;12.04;93.87
70982;BME280;58640;51.320;9.456;2023-04-01T13:25:49;97631.75;;;12.01;94.11
70982;BME280;58640;51.320;9.456;2023-04-01T13:28:28;97629.53;;;11.98;92.99
70982;BME280;58640;51.320;9.456;2023-04-01T13:37:12;97625.03;;;12.22;90.09
70982;BME280;58640;51.320;9.456;2023-04-01T13:39:57;97633.63;;;12.01;92.01
70982;BME280;58640;51.320;9.456;2023-04-01T13:42:38;97631.28;;;11.74;93.50
70982;BME280;58640;51.320;9.456;2023-04-01T13:51:06;97645.47;;;11.27;96.96
70982;BME280;58640;51.320;9.456;2023-04-01T14:14:02;97654.63;;;11.81;93.52
70982;BME280;58640;51.320;9.456;2023-04-01T14:22:32;97662.59;;;11.51;94.46
70982;BME280;58640;51.320;9.456;2023-04-01T14:28:37;97668.22;;;11.86;93.87
70982;BME280;58640;51.320;9.456;2023-04-01T14:31:26;97666.34;;;11.86;93.86
70982;BME280;58640;51.320;9.456;2023-04-01T14:40:26;97668.72;;;12.12;93.88
70982;BME280;58640;51.320;9.456;2023-04-01T14:43:20;97677.28;;;11.73;94.31
70982;BME280;58640;51.320;9.456;2023-04-01T14:48:59;97674.97;;;11.76;94.66
70982;BME280;58640;51.320;9.456;2023-04-01T14:51:32;97683.50;;;11.73;95.03
70982;BME280;58640;51.320;9.456;2023-04-01T14:54:13;97685.66;;;11.47;96.31
70982;BME280;58640;51.320;9.456;2023-04-01T14:56:49;97680.22;;;11.71;94.59
70982;BME280;58640;51.320;9.456;2023-04-01T15:02:00;97685.13;;;11.74;94.87
70982;BME280;58640;51.320;9.456;2023-04-01T15:12:29;97692.00;;;11.52;95.84
70982;BME280;58640;51.320;9.456;2023-04-01T15:15:44;97688.78;;;11.44;96.35
70982;BME280;58640;51.320;9.456;2023-04-01T15:18:09;97702.78;;;11.34;96.53
70982;BME280;58640;51.320;9.456;2023-04-01T15:23:42;97719.31;;;11.13;98.06
70982;BME280;58640;51.320;9.456;2023-04-01T15:32:17;97721.84;;;10.84;100.00
70982;BME280;58640;51.320;9.456;2023-04-01T15:35:01;97720.41;;;10.81;100.00
70982;BME280;58640;51.320;9.456;2023-04-01T15:37:45;97728.00;;;10.91;100.00
70982;BME280;58640;51.320;9.456;2023-04-01T15:43:12;97735.78;;;10.99;100.00
70982;BME280;58640;51.320;9.456;2023-04-01T15:45:58;97739.72;;;10.96;100.00
70982;BME280;58640;51.320;9.456;2023-04-01T15:59:47;97760.53;;;10.83;100.00
70982;BME280;58640;51.320;9.456;2023-04-01T16:02:44;97767.31;;;10.61;100.00
70982;BME280;58640;51.320;9.456;2023-04-01T16:15:39;97791.53;;;10.54;100.00
70982;BME280;58640;51.320;9.456;2023-04-01T16:21:08;97794.31;;;10.34;100.00
70982;BME280;58640;51.320;9.456;2023-04-01T16:23:49;97792.28;;;10.30;100.00
70982;BME280;58640;51.320;9.456;2023-04-01T16:29:09;97795.47;;;10.52;100.00
70982;BME280;58640;51.320;9.456;2023-04-01T16:31:44;97799.88;;;10.77;97.65
70982;BME280;58640;51.320;9.456;2023-04-01T16:34:38;97807.97;;;10.71;96.29
70982;BME280;58640;51.320;9.456;2023-04-01T16:37:20;97809.47;;;10.67;96.80
70982;BME280;58640;51.320;9.456;2023-04-01T16:43:04;97823.97;;;10.66;95.02
70982;BME280;58640;51.320;9.456;2023-04-01T16:45:40;97824.19;;;10.64;94.92
70982;BME280;58640;51.320;9.456;2023-04-01T16:50:51;97823.59;;;10.56;95.06
70982;BME280;58640;51.320;9.456;2023-04-01T16:56:11;97824.06;;;10.46;95.84
70982;BME280;58640;51.320;9.456;2023-04-01T16:58:43;97840.78;;;10.55;95.10
70982;BME280;58640;51.320;9.456;2023-04-01T17:01:21;97841.03;;;10.40;95.87
70982;BME280;58640;51.320;9.456;2023-04-01T17:03:51;97843.94;;;10.39;96.45
70982;BME280;58640;51.320;9.456;2023-04-01T17:06:30;97839.59;;;10.38;95.83
70982;BME280;58640;51.320;9.456;2023-04-01T17:11:59;97851.56;;;10.42;95.51
70982;BME280;58640;51.320;9.456;2023-04-01T17:22:44;97869.19;;;10.24;95.79
70982;BME280;58640;51.320;9.456;2023-04-01T17:30:33;97877.91;;;10.13;94.78
70982;BME280;58640;51.320;9.456;2023-04-01T17:47:31;97916.56;;;9.93;94.42
70982;BME280;58640;51.320;9.456;2023-04-01T17:50:18;97919.66;;;9.90;94.87
70982;BME280;58640;51.320;9.456;2023-04-01T17:52:55;97929.97;;;9.86;95.78
70982;BME280;58640;51.320;9.456;2023-04-01T17:55:32;97926.06;;;9.82;97.23
70982;BME280;58640;51.320;9.456;2023-04-01T18:06:35;97952.09;;;9.75;100.00
70982;BME280;58640;51.320;9.456;2023-04-01T18:15:01;97958.91;;;9.65;100.00
70982;BME280;58640;51.320;9.456;2023-04-01T18:17:46;97966.34;;;9.63;100.00
70982;BME280;58640;51.320;9.456;2023-04-01T18:30:58;97991.75;;;9.54;100.00
70982;BME280;58640;51.320;9.456;2023-04-01T18:36:59;97999.16;;;9.52;100.00
70982;BME280;58640;51.320;9.456;2023-04-01T18:39:23;97999.78;;;9.54;100.00
70982;BME280;58640;51.320;9.456;2023-04-01T18:51:15;98027.03;;;9.64;100.00
70982;BME280;58640;51.320;9.456;2023-04-01T18:53:48;98029.72;;;9.64;100.00
70982;BME280;58640;51.320;9.456;2023-04-01T18:56:31;98038.81;;;9.63;100.00
70982;BME280;58640;51.320;9.456;2023-04-01T18:59:06;98038.81;;;9.56;100.00
70982;BME280;58640;51.320;9.456;2023-04-01T19:04:10;98051.78;;;9.53;100.00
70982;BME280;58640;51.320;9.456;2023-04-01T19:06:45;98052.44;;;9.55;100.00
70982;BME280;58640;51.320;9.456;2023-04-01T19:22:34;98087.50;;;9.47;100.00
70982;BME280;58640;51.320;9.456;2023-04-01T19:25:38;98086.47;;;9.48;100.00
70982;BME280;58640;51.320;9.456;2023-04-01T19:28:46;98084.84;;;9.53;100.00
70982;BME280;58640;51.320;9.456;2023-04-01T19:36:50;98100.41;;;9.17;100.00
70982;BME280;58640;51.320;9.456;2023-04-01T19:39:57;98103.88;;;9.18;100.00
70982;BME280;58640;51.320;9.456;2023-04-01T19:42:39;98109.94;;;9.26;100.00
70982;BME280;58640;51.320;9.456;2023-04-01T19:51:01;98120.03;;;9.24;100.00
70982;BME280;58640;51.320;9.456;2023-04-01T19:56:22;98126.84;;;9.27;100.00
70982;BME280;58640;51.320;9.456;2023-04-01T19:58:54;98128.75;;;9.33;100.00
70982;BME280;58640;51.320;9.456;2023-04-01T20:01:35;98128.50;;;9.28;100.00
70982;BME280;58640;51.320;9.456;2023-04-01T20:04:26;98133.41;;;9.18;100.00
70982;BME280;58640;51.320;9.456;2023-04-01T20:07:13;98142.91;;;9.20;100.00
70982;BME280;58640;51.320;9.456;2023-04-01T20:17:51;98162.84;;;9.05;100.00
70982;BME280;58640;51.320;9.456;2023-04-01T20:20:26;98159.97;;;9.06;100.00
70982;BME280;58640;51.320;9.456;2023-04-01T20:25:33;98179.56;;;9.07;100.00
70982;BME280;58640;51.320;9.456;2023-04-01T20:36:28;98195.69;;;9.13;100.00
70982;BME280;58640;51.320;9.456;2023-04-01T20:44:04;98206.66;;;9.18;100.00
70982;BME280;58640;51.320;9.456;2023-04-01T20:46:50;98204.34;;;9.09;100.00
70982;BME280;58640;51.320;9.456;2023-04-01T20:54:54;98210.88;;;9.00;100.00
70982;BME280;58640;51.320;9.456;2023-04-01T20:57:51;98220.31;;;8.96;100.00
70982;BME280;58640;51.320;9.456;2023-04-01T21:03:29;98223.00;;;8.96;100.00
70982;BME280;58640;51.320;9.456;2023-04-01T21:11:43;98237.25;;;8.96;100.00
70982;BME280;58640;51.320;9.456;2023-04-01T21:20:04;98239.75;;;8.98;100.00
70982;BME280;58640;51.320;9.456;2023-04-01T21:22:59;98250.22;;;8.93;100.00
70982;BME280;58640;51.320;9.456;2023-04-01T21:31:25;98265.53;;;8.99;100.00
70982;BME280;58640;51.320;9.456;2023-04-01T21:45:33;98290.75;;;9.04;100.00
70982;BME280;58640;51.320;9.456;2023-04-01T22:07:09;98331.44;;;8.65;100.00
70982;BME280;58640;51.320;9.456;2023-04-01T22:12:34;98339.44;;;8.44;100.00
70982;BME280;58640;51.320;9.456;2023-04-01T22:15:40;98348.72;;;8.13;100.00
70982;BME280;58640;51.320;9.456;2023-04-01T22:18:20;98345.00;;;8.28;100.00
70982;BME280;58640;51.320;9.456;2023-04-01T22:20:55;98352.50;;;8.33;100.00
70982;BME280;58640;51.320;9.456;2023-04-01T22:31:15;98368.22;;;7.92;100.00
70982;BME280;58640;51.320;9.456;2023-04-01T22:36:41;98373.00;;;7.97;100.00
70982;BME280;58640;51.320;9.456;2023-04-01T22:39:29;98384.72;;;7.81;100.00